メインページ
METAR-TAF:

METAR-TAF

空港 :

成都双流国際空港

成都, 中華人民共和国

緯度: 30-40N, 経度: 104-01E, 海抜: 508m

現時点の気象観測

当レポートは34分前の23:00(UTC)に作成
の風 4kt、北/北西から北東の間で変化する
気温 20°C
湿度 100%
気圧 1009 hPa
視程: 8000m
高度700ftの雲はほとんどない
高度1000ftの雲は散在している

METAR: ZUUU 242300Z 01002MPS 330V040 8000 FEW007 SCT010 20/20 Q1009 NOSIG

時間: 07:34 (23:34 UTC)

予報

当レポートは9時間26分前の14:08(UTC)に作成
予報は24日の 18時(UTC)から 25日の 18時(UTC)まで有効
北/北東の風 6kt
視程: 5000m
高度4000ftの雲は散在している
24日の 18時(UTC)から 24日の 22時(UTC)まで一時的に
小雨

TAF: ZUUU 241408Z 2418/2518 02003MPS 5000 BR SCT040 TX24/2507Z TN19/2422Z TEMPO 2418/2422 -RA

4,000以上の空港の気象観測と天気予報(METAR報とTAF報)

利用可能な観測所は地図上に黄色い丸と赤い丸で示す。

丸の上にカーソルを重ねると観測所名を参照できる。

次にクリックすると気象観測と天気予報を参照できる。

マップの切り替え:黒色「×」印の緑ボタンをクリックして拡大、「-」印の緑ボタンをクリックして縮小、緑色の三角印をクリックして隣りの地図に切り替え


METAR-TAF: